createdAt,value
2022-10-28T00:02:34.000Z,18.64
2022-10-28T00:07:34.000Z,18.63
2022-10-28T00:12:35.000Z,18.2
2022-10-28T00:17:34.000Z,18.45
2022-10-28T00:22:34.000Z,17.09
2022-10-28T00:27:35.000Z,17.83
2022-10-28T00:32:34.000Z,17.2
2022-10-28T00:37:35.000Z,17.19
2022-10-28T00:42:34.000Z,15.66
2022-10-28T00:47:35.000Z,18.68
2022-10-28T00:52:34.000Z,18.68
2022-10-28T00:57:35.000Z,17.47
2022-10-28T01:02:35.000Z,17.71
2022-10-28T01:07:35.000Z,15.97
2022-10-28T01:12:35.000Z,16.71
2022-10-28T01:17:34.000Z,17.21
2022-10-28T01:22:35.000Z,17.37
2022-10-28T01:27:34.000Z,18.52
2022-10-28T01:32:35.000Z,18.24
2022-10-28T01:37:35.000Z,18.24
2022-10-28T01:42:35.000Z,17.76
2022-10-28T01:47:34.000Z,18.32
2022-10-28T01:52:35.000Z,19.38
2022-10-28T01:57:34.000Z,19.49
2022-10-28T02:02:34.000Z,19.25
2022-10-28T02:07:35.000Z,19.25
2022-10-28T02:12:35.000Z,20.28
2022-10-28T02:17:34.000Z,19.17
2022-10-28T02:22:35.000Z,18.51
2022-10-28T02:27:34.000Z,19.36
2022-10-28T02:32:35.000Z,19.09
2022-10-28T02:37:34.000Z,20.44
2022-10-28T02:42:35.000Z,20.14
2022-10-28T02:47:35.000Z,18.7
2022-10-28T02:57:34.000Z,19.89
2022-10-28T03:02:35.000Z,20.38
2022-10-28T03:07:34.000Z,19.71
2022-10-28T03:12:34.000Z,19.45
2022-10-28T03:17:35.000Z,19.89
2022-10-28T03:27:35.000Z,19.74
2022-10-28T03:32:34.000Z,18.51
2022-10-28T03:42:35.000Z,17.68
2022-10-28T03:47:34.000Z,18.09
2022-10-28T03:52:35.000Z,19.12
2022-10-28T03:57:35.000Z,18.62
2022-10-28T04:02:35.000Z,18.98
2022-10-28T04:07:35.000Z,19.05
2022-10-28T04:12:34.000Z,21.52
2022-10-28T04:17:34.000Z,19.25
2022-10-28T04:22:35.000Z,19.25
2022-10-28T04:27:34.000Z,18.53
2022-10-28T04:32:35.000Z,17.17
2022-10-28T04:37:35.000Z,18.93
2022-10-28T04:42:35.000Z,18.82
2022-10-28T04:52:34.000Z,17.59
2022-10-28T04:57:35.000Z,17.95
2022-10-28T05:02:35.000Z,17.47
2022-10-28T05:07:35.000Z,19.62
2022-10-28T05:12:35.000Z,19.58
2022-10-28T05:17:34.000Z,18.52
2022-10-28T05:22:34.000Z,19.66
2022-10-28T05:27:34.000Z,19.26
2022-10-28T05:32:35.000Z,19.33
2022-10-28T05:37:34.000Z,19.72
2022-10-28T05:42:35.000Z,18.25
2022-10-28T05:47:34.000Z,18.25
2022-10-28T05:52:34.000Z,18.18
2022-10-28T05:57:34.000Z,19.69
2022-10-28T06:02:34.000Z,21.67
2022-10-28T06:07:35.000Z,20.24
2022-10-28T06:17:34.000Z,22.17
2022-10-28T06:22:35.000Z,22.44
2022-10-28T06:27:34.000Z,20.55
2022-10-28T06:32:35.000Z,21.07
2022-10-28T06:37:34.000Z,19.17
2022-10-28T06:42:34.000Z,20.24
2022-10-28T06:47:35.000Z,19.97
2022-10-28T06:52:35.000Z,20.97
2022-10-28T06:57:39.000Z,20.97
2022-10-28T07:02:35.000Z,20.18
2022-10-28T07:12:35.000Z,19.75
2022-10-28T07:17:34.000Z,20.9
2022-10-28T07:22:35.000Z,18.77
2022-10-28T07:27:35.000Z,19.7
2022-10-28T07:32:35.000Z,21.13
2022-10-28T07:37:35.000Z,21.13
2022-10-28T07:42:34.000Z,19.96
2022-10-28T07:47:35.000Z,21.91
2022-10-28T07:52:34.000Z,22.17
2022-10-28T07:57:34.000Z,22.69
2022-10-28T08:02:35.000Z,23.18
2022-10-28T08:07:34.000Z,23.8
2022-10-28T08:12:34.000Z,28.12
2022-10-28T08:17:35.000Z,27.57
2022-10-28T08:22:35.000Z,27.51
2022-10-28T08:27:35.000Z,30.13
2022-10-28T08:32:34.000Z,28.9
2022-10-28T08:37:35.000Z,28.44
2022-10-28T08:42:35.000Z,29.31
2022-10-28T08:47:34.000Z,29.76
2022-10-28T08:52:35.000Z,31.3
2022-10-28T08:57:35.000Z,31.3
2022-10-28T09:02:35.000Z,30.27
2022-10-28T09:07:34.000Z,32.1
2022-10-28T09:12:35.000Z,30.73
2022-10-28T09:17:35.000Z,31.21
2022-10-28T09:22:35.000Z,31.71
2022-10-28T09:27:35.000Z,29.54
2022-10-28T09:32:35.000Z,30.17
2022-10-28T09:42:35.000Z,30.96
2022-10-28T09:47:34.000Z,28.72
2022-10-28T09:52:34.000Z,29.84
2022-10-28T09:57:35.000Z,30.94
2022-10-28T10:02:35.000Z,29.32
2022-10-28T10:07:35.000Z,28.9
2022-10-28T10:12:34.000Z,28.92
2022-10-28T10:17:34.000Z,27.74
2022-10-28T10:22:35.000Z,27.41
2022-10-28T10:27:35.000Z,30.49
2022-10-28T10:32:35.000Z,30.72
2022-10-28T10:37:34.000Z,31.52
2022-10-28T10:42:35.000Z,27.9
2022-10-28T10:47:34.000Z,27.9
2022-10-28T10:57:35.000Z,28.05
2022-10-28T11:02:35.000Z,28.37
2022-10-28T11:07:35.000Z,28.79
2022-10-28T11:12:35.000Z,29.91
2022-10-28T11:17:35.000Z,29.91
2022-10-28T11:22:35.000Z,29.9
2022-10-28T11:27:34.000Z,30.7
2022-10-28T11:32:35.000Z,29.23
2022-10-28T11:37:35.000Z,29.95
2022-10-28T11:42:35.000Z,28.27
2022-10-28T11:47:35.000Z,30.63
2022-10-28T11:52:34.000Z,31.71
2022-10-28T11:57:35.000Z,28.76
2022-10-28T12:02:35.000Z,31.63
2022-10-28T12:07:34.000Z,30.82
2022-10-28T12:12:35.000Z,32.49
2022-10-28T12:17:34.000Z,30.79
2022-10-28T12:22:34.000Z,31.43
2022-10-28T12:27:34.000Z,31.54
2022-10-28T12:32:35.000Z,31.54
2022-10-28T12:37:34.000Z,32.17
2022-10-28T12:42:35.000Z,30.42
2022-10-28T12:47:35.000Z,31.56
2022-10-28T12:52:35.000Z,32.33
2022-10-28T12:57:34.000Z,29.66
2022-10-28T13:02:35.000Z,27.44
2022-10-28T13:07:35.000Z,26.99
2022-10-28T13:12:35.000Z,25.65
2022-10-28T13:17:34.000Z,24.65
2022-10-28T13:22:35.000Z,25.71
2022-10-28T13:32:34.000Z,24.21
2022-10-28T13:37:35.000Z,20.36
2022-10-28T13:42:34.000Z,19.67
2022-10-28T13:47:34.000Z,19.67
2022-10-28T13:52:34.000Z,18.29
2022-10-28T13:57:34.000Z,21.09
2022-10-28T14:02:45.000Z,17.91
2022-10-28T14:07:35.000Z,17.69
2022-10-28T14:12:34.000Z,18.41
2022-10-28T14:17:35.000Z,19.41
2022-10-28T14:22:34.000Z,20.25
2022-10-28T14:27:35.000Z,19.91
2022-10-28T14:32:35.000Z,20.94
2022-10-28T14:37:38.000Z,20.25
2022-10-28T14:42:34.000Z,21.05
2022-10-28T14:47:34.000Z,19.23
2022-10-28T14:52:34.000Z,20.18
2022-10-28T14:57:39.000Z,20.72
2022-10-28T15:02:35.000Z,20.72
2022-10-28T15:07:35.000Z,22.14
2022-10-28T15:12:35.000Z,21.18
2022-10-28T15:17:34.000Z,22.29
2022-10-28T15:22:35.000Z,21.45
2022-10-28T15:27:35.000Z,21.11
2022-10-28T15:32:34.000Z,21.8
2022-10-28T15:37:34.000Z,20.94
2022-10-28T15:42:35.000Z,21.52
2022-10-28T15:47:34.000Z,21.09
2022-10-28T15:52:35.000Z,21.13
2022-10-28T15:57:35.000Z,21.03
2022-10-28T16:02:35.000Z,19.85
2022-10-28T16:07:35.000Z,20.75
2022-10-28T16:12:34.000Z,24.7
2022-10-28T16:17:35.000Z,24.7
2022-10-28T16:27:35.000Z,23.25
2022-10-28T16:32:35.000Z,22.52
2022-10-28T16:37:34.000Z,22.69
2022-10-28T16:42:35.000Z,22.6
2022-10-28T16:47:35.000Z,23.22
2022-10-28T16:52:35.000Z,22
2022-10-28T16:57:35.000Z,21.98
2022-10-28T17:02:35.000Z,21.98
2022-10-28T17:07:35.000Z,23.72
2022-10-28T17:12:34.000Z,23.85
2022-10-28T17:17:35.000Z,23.47
2022-10-28T17:22:35.000Z,23.66
2022-10-28T17:27:34.000Z,23.37
2022-10-28T17:32:35.000Z,24
2022-10-28T17:37:35.000Z,22.25
2022-10-28T17:42:34.000Z,23.53
2022-10-28T17:47:35.000Z,24.66
2022-10-28T17:52:35.000Z,23.27
2022-10-28T17:57:34.000Z,24.07
2022-10-28T18:02:35.000Z,24.86
2022-10-28T18:07:35.000Z,23.95
2022-10-28T18:12:34.000Z,23.72
2022-10-28T18:17:34.000Z,23.72
2022-10-28T18:22:35.000Z,26.65
2022-10-28T18:27:34.000Z,23.41
2022-10-28T18:32:35.000Z,23.94
2022-10-28T18:37:34.000Z,25.85
2022-10-28T18:42:34.000Z,22.93
2022-10-28T18:47:34.000Z,24.14
2022-10-28T18:52:35.000Z,23.99
2022-10-28T18:57:34.000Z,23.77
2022-10-28T19:02:35.000Z,22.59
2022-10-28T19:07:34.000Z,24.52
2022-10-28T19:12:35.000Z,24.56
2022-10-28T19:17:34.000Z,23.56
2022-10-28T19:22:35.000Z,23.79
2022-10-28T19:27:34.000Z,23.79
2022-10-28T19:37:34.000Z,23.02
2022-10-28T19:42:35.000Z,22.93
2022-10-28T19:47:35.000Z,22.93
2022-10-28T19:52:34.000Z,23.54
2022-10-28T19:57:35.000Z,20.94
2022-10-28T20:02:35.000Z,20.3
2022-10-28T20:07:34.000Z,22.45
2022-10-28T20:17:34.000Z,19.68
2022-10-28T20:22:34.000Z,19.4
2022-10-28T20:27:35.000Z,21.21
2022-10-28T20:32:34.000Z,21.16
2022-10-28T20:37:35.000Z,21.16
2022-10-28T20:42:35.000Z,21.91
2022-10-28T20:47:34.000Z,22.06
2022-10-28T20:52:35.000Z,21.73
2022-10-28T20:57:34.000Z,20.02
2022-10-28T21:02:34.000Z,20.52
2022-10-28T21:07:35.000Z,20.7
2022-10-28T21:12:34.000Z,20.79
2022-10-28T21:17:35.000Z,20.12
2022-10-28T21:22:35.000Z,21.02
2022-10-28T21:27:34.000Z,20.1
2022-10-28T21:37:34.000Z,21.97
2022-10-28T21:42:35.000Z,20.73
2022-10-28T21:47:35.000Z,22.33
2022-10-28T21:52:34.000Z,21.62
2022-10-28T21:57:35.000Z,21.91
2022-10-28T22:02:35.000Z,20.54
2022-10-28T22:07:35.000Z,20.64
2022-10-28T22:12:34.000Z,20.77
2022-10-28T22:17:34.000Z,20.77
2022-10-28T22:22:35.000Z,20.48
2022-10-28T22:27:34.000Z,18.98
2022-10-28T22:32:35.000Z,19.35
2022-10-28T22:37:35.000Z,18.43
2022-10-28T22:42:35.000Z,18.57
2022-10-28T22:47:34.000Z,17.51
2022-10-28T22:52:35.000Z,18.24
2022-10-28T22:57:34.000Z,19.8
2022-10-28T23:02:35.000Z,18.76
2022-10-28T23:07:35.000Z,18.55
2022-10-28T23:12:34.000Z,20.51
2022-10-28T23:17:35.000Z,21.92
2022-10-28T23:22:35.000Z,21.2
2022-10-28T23:27:35.000Z,21.2
2022-10-28T23:32:35.000Z,23.39
2022-10-28T23:37:34.000Z,23.06
2022-10-28T23:42:35.000Z,22.83
2022-10-28T23:47:34.000Z,22.6
2022-10-28T23:52:35.000Z,21.98
2022-10-28T23:57:35.000Z,22.99
